Frankfort, MI (49635)

5:05 AM EDT on September 03, 2015 (GMT -0400)
Crystal Lake Pinecrest | | Change Station
CLOSE
Current Station
Personal Weather Station
Location: Beulah, MI
Elevation: 607 ft
Nearby Weather Stations

Elev 607 ft 44.66 °N, 86.14 °W | Updated 5 seconds ago

Heavy Rain
Heavy Rain
68.0 °F
Feels Like 68.0 °F
N
0.0
Wind Variable Wind from North
Gusts 0.0 mph

Today
High -- | Low -- °F
--% Chance of Precip.
Yesterday
High -- | Low -- °F
Precip. -- in
7:09 AM 8:18 PM
Waning Gibbous, 72% visible
Pressure 29.90 in
Visibility 5.0 miles
Clouds
Dew Point 67 °F
Humidity 96%
Rainfall 0.90 in
Snow Depth Not available.
UV Not available.
Pollen 10.10 out of 12
Air Quality Not available.
Flu Activity Not available.
METAR KFKS 030855Z AUTO 00000KT 5SM +RA 20/19 A2990 RMK AO2 T02000194
Pressure 29.90 in
Visibility 5.0 miles
Clouds
Dew Point 67 °F
Humidity 96%
Rainfall 0.90 in
Snow Depth Not available.
UV Not available.
Pollen 10.10 out of 12
Air Quality Not available.
Flu Activity Not available.
METAR KFKS 030855Z AUTO 00000KT 5SM +RA 20/19 A2990 RMK AO2 T02000194
Nowcast | as of 5:00 am EDT on September 3, 2015

At 6 am...thunderstorms. Temperature 69. Southwest winds 5 mph. At 8 am...areas of fog. Thunderstorms likely. Temperature 68. Light winds. At 10 am...areas of fog. Thunderstorms likely. Temperature 70. Light winds. At 12 PM...mostly cloudy. Slight chance of thunderstorms. Temperature 76. West winds 5 mph.

×

10-Day Weather Forecast

×

Almanac

Astronomy

Sep. 03, 2015 Rise Set
Actual Time
Civil Twilight
Nautical Twilight
Astronomical Twilight
Moon
Length of Visible Light
Length of Day
Tomorrow will be .
, % of the Moon is Illuminated

Today's Extremes

State Highs State Lows

Community

WunderPhotos

Upload Photos

1,851,922 photos uploaded!

WunderBlogs® & News

Nearby

Air Quality

  Air Quality AQ Index Pollutant
Not available.

Snow Depth

Station Depth Elevation

Earthquake Activity

City Distance Mag. Time & Date
Minimum magnitude displayed is 2.5.

Coastal Water Temperatures

Place Temperature

Stations

Nearby Weather Stations

Station Location Temp. Windchill Dew Point Humidity Wind Precip. Elev Updated Type